createdAt,value
2022-09-10T00:00:06.140Z,0.80
2022-09-10T00:00:16.142Z,0.60
2022-09-10T00:00:26.211Z,0.80
2022-09-10T00:00:36.168Z,1.30
2022-09-10T00:00:46.220Z,1.30
2022-09-10T00:00:56.164Z,1.50
2022-09-10T00:01:06.265Z,2.60
2022-09-10T00:01:16.225Z,2.70
2022-09-10T00:01:26.352Z,2.90
2022-09-10T00:01:36.312Z,1.10
2022-09-10T00:01:46.236Z,1.30
2022-09-10T00:01:56.252Z,1.00
2022-09-10T00:02:06.293Z,1.20
2022-09-10T00:02:16.275Z,1.60
2022-09-10T00:02:26.219Z,1.40
2022-09-10T00:02:36.319Z,1.20
2022-09-10T00:02:46.321Z,1.00
2022-09-10T00:02:56.187Z,1.00
2022-09-10T00:03:06.265Z,0.80
2022-09-10T00:03:16.204Z,1.70
2022-09-10T00:03:26.174Z,1.90
2022-09-10T00:03:36.226Z,2.00
2022-09-10T00:03:46.146Z,2.30
2022-09-10T00:03:56.180Z,2.00
2022-09-10T00:04:06.251Z,2.10
2022-09-10T00:04:16.152Z,0.70
2022-09-10T00:04:26.171Z,0.40
2022-09-10T00:04:36.218Z,0.50
2022-09-10T00:04:46.204Z,0.70
2022-09-10T00:04:56.231Z,0.90
2022-09-10T00:05:06.265Z,0.60
2022-09-10T00:05:16.180Z,1.20
2022-09-10T00:05:26.273Z,1.30
2022-09-10T00:05:36.165Z,1.60
2022-09-10T00:05:46.219Z,3.90
2022-09-10T00:05:56.220Z,3.60
2022-09-10T00:06:06.163Z,3.50
2022-09-10T00:06:16.160Z,1.20
2022-09-10T00:06:26.302Z,1.50
2022-09-10T00:06:36.195Z,1.20
2022-09-10T00:06:46.249Z,0.60
2022-09-10T00:06:56.225Z,0.30
2022-09-10T00:07:06.137Z,1.70
2022-09-10T00:07:16.180Z,1.70
2022-09-10T00:07:26.259Z,1.90
2022-09-10T00:07:36.183Z,0.70
2022-09-10T00:07:46.255Z,0.90
2022-09-10T00:07:56.143Z,0.90
2022-09-10T00:08:06.180Z,0.90
2022-09-10T00:08:16.168Z,1.00
2022-09-10T00:08:26.235Z,1.90
2022-09-10T00:08:36.262Z,2.20
2022-09-10T00:08:46.154Z,2.00
2022-09-10T00:08:56.137Z,0.70
2022-09-10T00:09:06.184Z,2.20
2022-09-10T00:09:16.186Z,2.10
2022-09-10T00:09:26.158Z,2.40
2022-09-10T00:09:36.220Z,0.60
2022-09-10T00:09:46.226Z,0.50
2022-09-10T00:09:56.277Z,0.30
2022-09-10T00:10:06.198Z,0.80
2022-09-10T00:10:16.219Z,2.40
2022-09-10T00:10:26.170Z,2.70
2022-09-10T00:10:36.232Z,2.40
2022-09-10T00:10:46.162Z,1.10
2022-09-10T00:10:56.198Z,1.00
2022-09-10T00:11:06.256Z,2.40
2022-09-10T00:11:16.168Z,2.00
2022-09-10T00:11:26.265Z,2.10
2022-09-10T00:11:36.198Z,0.50
2022-09-10T00:11:46.212Z,1.30
2022-09-10T00:11:56.254Z,1.20
2022-09-10T00:12:06.270Z,1.30
2022-09-10T00:12:16.207Z,0.50
2022-09-10T00:12:26.162Z,0.40
2022-09-10T00:12:36.164Z,0.80
2022-09-10T00:12:46.264Z,1.40
2022-09-10T00:12:56.253Z,1.30
2022-09-10T00:13:06.151Z,0.80
2022-09-10T00:13:16.149Z,0.30
2022-09-10T00:13:26.142Z,0.50
2022-09-10T00:13:36.161Z,0.40
2022-09-10T00:13:46.159Z,0.40
2022-09-10T00:13:56.195Z,0.30
2022-09-10T00:14:06.197Z,0.40
2022-09-10T00:14:16.188Z,0.80
2022-09-10T00:14:26.182Z,1.40
2022-09-10T00:14:36.196Z,1.20
2022-09-10T00:14:46.271Z,1.00
2022-09-10T00:14:56.219Z,0.40
2022-09-10T00:15:06.207Z,0.80
2022-09-10T00:15:16.138Z,0.90
2022-09-10T00:15:26.221Z,0.80
2022-09-10T00:15:36.262Z,1.30
2022-09-10T00:15:46.249Z,1.00
2022-09-10T00:15:56.271Z,1.00
2022-09-10T00:16:06.284Z,0.30
2022-09-10T00:16:16.276Z,2.10
2022-09-10T00:16:26.298Z,3.60
2022-09-10T00:16:36.237Z,3.70
2022-09-10T00:16:46.150Z,1.90
2022-09-10T00:16:56.248Z,0.80
2022-09-10T00:17:06.178Z,2.20
2022-09-10T00:17:16.243Z,2.70
2022-09-10T00:17:26.189Z,2.50
2022-09-10T00:17:36.223Z,1.00
2022-09-10T00:17:46.179Z,0.70
2022-09-10T00:17:56.230Z,0.90
2022-09-10T00:18:06.226Z,1.10
2022-09-10T00:18:16.253Z,0.80
2022-09-10T00:18:26.220Z,0.50
2022-09-10T00:18:36.394Z,0.30
2022-09-10T00:18:46.267Z,0.40
2022-09-10T00:18:56.221Z,0.40
2022-09-10T00:19:06.229Z,0.30
2022-09-10T00:19:16.173Z,0.30
2022-09-10T00:19:26.163Z,0.60
2022-09-10T00:19:36.226Z,1.50
2022-09-10T00:19:46.150Z,1.40
2022-09-10T00:19:56.249Z,1.10
2022-09-10T00:20:06.255Z,1.80
2022-09-10T00:20:16.141Z,2.00
2022-09-10T00:20:26.264Z,2.60
2022-09-10T00:20:36.228Z,1.30
2022-09-10T00:20:46.181Z,1.10
2022-09-10T00:20:56.214Z,0.80
2022-09-10T00:21:06.260Z,0.50
2022-09-10T00:21:16.195Z,0.60
2022-09-10T00:21:26.257Z,2.50
2022-09-10T00:21:36.237Z,2.50
2022-09-10T00:21:46.143Z,3.00
2022-09-10T00:21:56.185Z,0.90
2022-09-10T00:22:06.237Z,1.10
2022-09-10T00:22:16.220Z,0.60
2022-09-10T00:22:26.143Z,0.80
2022-09-10T00:22:36.197Z,1.30
2022-09-10T00:22:46.221Z,1.50
2022-09-10T00:22:56.218Z,1.60
2022-09-10T00:23:06.264Z,0.90
2022-09-10T00:23:16.258Z,0.80
2022-09-10T00:23:26.235Z,0.50
2022-09-10T00:23:36.149Z,1.20
2022-09-10T00:23:46.186Z,1.40
2022-09-10T00:23:56.191Z,1.50
2022-09-10T00:24:06.249Z,1.30
2022-09-10T00:24:16.193Z,0.90
2022-09-10T00:24:26.209Z,1.00
2022-09-10T00:24:36.160Z,0.50
2022-09-10T00:24:46.206Z,1.90
2022-09-10T00:24:56.237Z,2.10
2022-09-10T00:25:08.336Z,2.50
2022-09-10T00:25:16.183Z,3.10
2022-09-10T00:25:26.255Z,2.80
2022-09-10T00:25:36.229Z,2.20
2022-09-10T00:25:46.266Z,0.50
2022-09-10T00:25:56.162Z,1.30
2022-09-10T00:26:06.256Z,1.80
2022-09-10T00:26:16.264Z,2.00
2022-09-10T00:26:26.257Z,1.40
2022-09-10T00:26:36.220Z,1.00
2022-09-10T00:26:46.177Z,0.60
2022-09-10T00:26:56.232Z,0.50
2022-09-10T00:27:06.187Z,0.40
2022-09-10T00:27:16.223Z,0.70
2022-09-10T00:27:26.154Z,0.50
2022-09-10T00:27:36.187Z,1.30
2022-09-10T00:27:46.251Z,1.00
2022-09-10T00:27:56.196Z,1.60
2022-09-10T00:28:06.181Z,1.00
2022-09-10T00:28:16.250Z,1.00
2022-09-10T00:28:26.157Z,1.20
2022-09-10T00:28:36.169Z,1.20
2022-09-10T00:28:46.241Z,1.30
2022-09-10T00:28:56.218Z,0.40
2022-09-10T00:29:06.178Z,0.80
2022-09-10T00:29:16.190Z,1.10
2022-09-10T00:29:26.153Z,1.10
2022-09-10T00:29:36.143Z,1.00
2022-09-10T00:29:46.287Z,0.80
2022-09-10T00:29:56.220Z,2.30
2022-09-10T00:30:06.227Z,1.80
2022-09-10T00:30:16.175Z,2.40
2022-09-10T00:30:26.178Z,1.50
2022-09-10T00:30:36.268Z,2.80
2022-09-10T00:30:46.201Z,2.30
2022-09-10T00:30:56.219Z,2.70
2022-09-10T00:31:06.210Z,3.10
2022-09-10T00:31:16.238Z,2.00
2022-09-10T00:31:26.179Z,1.00
2022-09-10T00:31:36.432Z,0.60
2022-09-10T00:31:46.252Z,0.30
2022-09-10T00:31:56.218Z,0.40
2022-09-10T00:32:06.157Z,0.80
2022-09-10T00:32:16.262Z,1.50
2022-09-10T00:32:26.144Z,2.00
2022-09-10T00:32:36.155Z,2.30
2022-09-10T00:32:46.165Z,1.50
2022-09-10T00:32:56.141Z,1.00
2022-09-10T00:33:06.153Z,2.20
2022-09-10T00:33:16.171Z,2.30
2022-09-10T00:33:26.156Z,2.80
2022-09-10T00:33:36.162Z,1.00
2022-09-10T00:33:46.236Z,0.90
2022-09-10T00:33:56.217Z,0.60
2022-09-10T00:34:06.202Z,1.30
2022-09-10T00:34:16.245Z,1.20
2022-09-10T00:34:26.182Z,1.00
2022-09-10T00:34:36.252Z,2.90
2022-09-10T00:34:46.207Z,2.90
2022-09-10T00:34:56.211Z,3.40
2022-09-10T00:35:06.262Z,2.70
2022-09-10T00:35:16.184Z,4.20
2022-09-10T00:35:26.158Z,4.20
2022-09-10T00:35:36.265Z,2.20
2022-09-10T00:35:46.190Z,1.60
2022-09-10T00:35:56.260Z,1.30
2022-09-10T00:36:06.179Z,1.30
2022-09-10T00:36:16.149Z,0.40
2022-09-10T00:36:26.228Z,2.00
2022-09-10T00:36:36.234Z,2.80
2022-09-10T00:36:46.158Z,3.10
2022-09-10T00:36:56.209Z,1.70
2022-09-10T00:37:06.215Z,1.00
2022-09-10T00:37:16.194Z,2.00
2022-09-10T00:37:26.189Z,2.10
2022-09-10T00:37:36.270Z,1.80
2022-09-10T00:37:46.142Z,1.10
2022-09-10T00:37:56.206Z,0.70
2022-09-10T00:38:06.215Z,2.00
2022-09-10T00:38:16.218Z,1.60
2022-09-10T00:38:26.159Z,1.50
2022-09-10T00:38:36.300Z,0.80
2022-09-10T00:38:46.247Z,1.40
2022-09-10T00:38:56.218Z,1.30
2022-09-10T00:39:06.245Z,0.90
2022-09-10T00:39:16.245Z,0.50
2022-09-10T00:39:26.225Z,1.40
2022-09-10T00:39:36.210Z,1.60
2022-09-10T00:39:46.309Z,1.90
2022-09-10T00:39:56.271Z,1.00
2022-09-10T00:40:06.236Z,0.80
2022-09-10T00:40:16.211Z,0.40
2022-09-10T00:40:26.173Z,1.10
2022-09-10T00:40:36.146Z,2.00
2022-09-10T00:40:46.161Z,1.90
2022-09-10T00:40:56.178Z,1.50
2022-09-10T00:41:06.249Z,0.80
2022-09-10T00:41:16.208Z,1.00
2022-09-10T00:41:26.192Z,1.10
2022-09-10T00:41:36.251Z,1.30
2022-09-10T00:41:46.231Z,1.10
2022-09-10T00:41:56.221Z,1.20
2022-09-10T00:42:06.146Z,0.80
2022-09-10T00:42:16.262Z,1.00
2022-09-10T00:42:26.165Z,1.60
2022-09-10T00:42:36.265Z,1.50
2022-09-10T00:42:46.197Z,1.60
2022-09-10T00:42:56.148Z,0.80
2022-09-10T00:43:06.234Z,1.10
2022-09-10T00:43:16.262Z,1.30
2022-09-10T00:43:26.193Z,1.10
2022-09-10T00:43:36.246Z,2.20
2022-09-10T00:43:46.197Z,1.90
2022-09-10T00:43:56.198Z,2.80
2022-09-10T00:44:06.196Z,2.20
2022-09-10T00:44:16.233Z,2.30
2022-09-10T00:44:26.152Z,2.10
2022-09-10T00:44:36.196Z,1.20
2022-09-10T00:44:46.183Z,1.10
2022-09-10T00:44:56.190Z,0.70
2022-09-10T00:45:06.264Z,1.10
2022-09-10T00:45:16.218Z,1.10
2022-09-10T00:45:26.290Z,1.40
2022-09-10T00:45:36.306Z,1.60
2022-09-10T00:45:46.237Z,1.80
2022-09-10T00:45:56.300Z,1.20
2022-09-10T00:46:06.286Z,0.80
2022-09-10T00:46:16.201Z,0.90
2022-09-10T00:46:26.141Z,1.00
2022-09-10T00:46:36.228Z,1.20
2022-09-10T00:46:46.170Z,1.60
2022-09-10T00:46:56.280Z,1.50
2022-09-10T00:47:06.226Z,1.50
2022-09-10T00:47:16.172Z,0.40
2022-09-10T00:47:26.156Z,1.50
2022-09-10T00:47:36.141Z,1.40
2022-09-10T00:47:46.218Z,2.60
2022-09-10T00:47:56.157Z,1.80
2022-09-10T00:48:06.191Z,2.50
2022-09-10T00:48:16.148Z,1.50
2022-09-10T00:48:26.187Z,1.90
2022-09-10T00:48:36.136Z,1.20
2022-09-10T00:48:46.230Z,0.90
2022-09-10T00:48:56.243Z,0.50
2022-09-10T00:49:06.240Z,0.70
2022-09-10T00:49:16.227Z,1.40
2022-09-10T00:49:26.160Z,1.10
2022-09-10T00:49:36.233Z,0.90
2022-09-10T00:49:46.148Z,0.50
2022-09-10T00:49:56.168Z,0.60
2022-09-10T00:50:06.222Z,1.10
2022-09-10T00:50:16.162Z,1.30
2022-09-10T00:50:26.265Z,2.00
2022-09-10T00:50:36.186Z,1.60
2022-09-10T00:50:46.248Z,1.30
2022-09-10T00:50:56.180Z,0.70
2022-09-10T00:51:06.205Z,0.50
2022-09-10T00:51:16.147Z,0.40
2022-09-10T00:51:26.233Z,1.50
2022-09-10T00:51:36.174Z,2.20
2022-09-10T00:51:46.245Z,2.30
2022-09-10T00:51:56.146Z,1.20
2022-09-10T00:52:06.193Z,0.50
2022-09-10T00:52:16.217Z,1.40
2022-09-10T00:52:26.203Z,1.20
2022-09-10T00:52:39.624Z,2.70
2022-09-10T00:52:46.239Z,3.60
2022-09-10T00:52:56.198Z,4.40
2022-09-10T00:53:06.218Z,4.40
2022-09-10T00:53:16.164Z,2.70
2022-09-10T00:53:26.165Z,1.90
2022-09-10T00:53:36.240Z,1.00
2022-09-10T00:53:46.183Z,3.50
2022-09-10T00:53:56.148Z,4.30
2022-09-10T00:54:06.229Z,3.70
2022-09-10T00:54:16.222Z,1.10
2022-09-10T00:54:26.221Z,0.30
2022-09-10T00:54:36.152Z,0.90
2022-09-10T00:54:46.147Z,2.20
2022-09-10T00:54:56.204Z,2.20
2022-09-10T00:55:06.233Z,1.50
2022-09-10T00:55:16.262Z,0.30
2022-09-10T00:55:26.205Z,1.80
2022-09-10T00:55:36.145Z,2.20
2022-09-10T00:55:46.241Z,2.40
2022-09-10T00:55:56.148Z,0.80
2022-09-10T00:56:06.210Z,0.60
2022-09-10T00:56:16.148Z,1.20
2022-09-10T00:56:26.161Z,1.00
2022-09-10T00:56:36.189Z,1.10
2022-09-10T00:56:46.270Z,0.30
2022-09-10T00:56:56.194Z,0.50
2022-09-10T00:57:06.253Z,1.30
2022-09-10T00:57:16.142Z,1.30
2022-09-10T00:57:26.195Z,1.80
2022-09-10T00:57:36.177Z,1.30
2022-09-10T00:57:46.272Z,1.50
2022-09-10T00:57:56.252Z,0.70
2022-09-10T00:58:06.207Z,0.30
2022-09-10T00:58:16.204Z,0.30
2022-09-10T00:58:26.180Z,0.60
2022-09-10T00:58:36.272Z,0.70
2022-09-10T00:58:46.216Z,0.80
2022-09-10T00:58:56.237Z,0.60
2022-09-10T00:59:06.270Z,1.50
2022-09-10T00:59:16.268Z,1.50
2022-09-10T00:59:26.219Z,4.30
2022-09-10T00:59:36.272Z,3.40
2022-09-10T00:59:46.162Z,3.30
2022-09-10T00:59:56.221Z,0.70
2022-09-10T01:00:06.200Z,0.60
2022-09-10T01:00:16.256Z,0.80
2022-09-10T01:00:26.229Z,0.50
2022-09-10T01:00:36.216Z,1.40
2022-09-10T01:00:46.234Z,2.00
2022-09-10T01:00:56.281Z,2.80
2022-09-10T01:01:06.294Z,2.10
2022-09-10T01:01:16.291Z,1.50
2022-09-10T01:01:26.194Z,1.30
2022-09-10T01:01:36.338Z,1.20
2022-09-10T01:01:46.233Z,1.20
2022-09-10T01:01:56.313Z,1.10
2022-09-10T01:02:06.270Z,1.90
2022-09-10T01:02:16.292Z,1.50
2022-09-10T01:02:26.186Z,1.60
2022-09-10T01:02:36.158Z,1.10
2022-09-10T01:02:46.184Z,1.70
2022-09-10T01:02:56.215Z,2.40
2022-09-10T01:03:06.161Z,2.50
2022-09-10T01:03:16.160Z,2.60
2022-09-10T01:03:26.185Z,1.90
2022-09-10T01:03:36.237Z,1.50
2022-09-10T01:03:46.258Z,2.40
2022-09-10T01:03:56.234Z,1.90
2022-09-10T01:04:06.153Z,3.50
2022-09-10T01:04:16.147Z,2.00
2022-09-10T01:04:26.164Z,1.90
2022-09-10T01:04:36.145Z,0.50
2022-09-10T01:04:46.197Z,0.50
2022-09-10T01:04:56.151Z,0.90
2022-09-10T01:05:06.239Z,1.70
2022-09-10T01:05:16.201Z,1.60
2022-09-10T01:05:26.171Z,1.30
2022-09-10T01:05:36.214Z,0.40
2022-09-10T01:05:46.159Z,0.50
2022-09-10T01:05:56.190Z,0.60
2022-09-10T01:06:06.166Z,1.20
2022-09-10T01:06:16.246Z,1.10
2022-09-10T01:06:26.171Z,0.90
2022-09-10T01:06:36.213Z,0.50
2022-09-10T01:06:46.153Z,0.70
2022-09-10T01:06:56.233Z,1.80
2022-09-10T01:07:06.265Z,3.50
2022-09-10T01:07:16.212Z,3.60
2022-09-10T01:07:26.171Z,2.60
2022-09-10T01:07:36.261Z,0.90
2022-09-10T01:07:46.187Z,0.80
2022-09-10T01:07:56.248Z,0.50
2022-09-10T01:08:06.143Z,0.50
2022-09-10T01:08:16.236Z,0.50
2022-09-10T01:08:26.234Z,0.70
2022-09-10T01:08:36.142Z,0.60
2022-09-10T01:08:46.259Z,0.50
2022-09-10T01:08:56.179Z,0.70
2022-09-10T01:09:06.153Z,0.80
2022-09-10T01:09:16.215Z,0.80
2022-09-10T01:09:26.189Z,0.90
2022-09-10T01:09:36.160Z,1.30
2022-09-10T01:09:46.242Z,1.30
2022-09-10T01:09:56.270Z,1.30
2022-09-10T01:10:06.242Z,1.10
2022-09-10T01:10:16.216Z,1.00
2022-09-10T01:10:26.239Z,0.40
2022-09-10T01:10:36.214Z,0.20
2022-09-10T01:10:46.212Z,0.30
2022-09-10T01:10:56.149Z,0.40
2022-09-10T01:11:06.148Z,0.60
2022-09-10T01:11:16.190Z,0.70
2022-09-10T01:11:26.240Z,0.60
2022-09-10T01:11:36.228Z,1.00
2022-09-10T01:11:46.151Z,0.80
2022-09-10T01:11:56.281Z,3.50
2022-09-10T01:12:06.190Z,3.60
2022-09-10T01:12:16.257Z,4.40
2022-09-10T01:12:26.239Z,2.40
2022-09-10T01:12:36.225Z,1.70
2022-09-10T01:12:46.212Z,1.20
2022-09-10T01:12:56.149Z,1.10
2022-09-10T01:13:06.240Z,1.20
2022-09-10T01:13:16.251Z,1.00
2022-09-10T01:13:26.192Z,0.40
2022-09-10T01:13:36.212Z,0.70
2022-09-10T01:13:46.153Z,1.20
2022-09-10T01:13:56.159Z,1.40
2022-09-10T01:14:06.191Z,0.80
2022-09-10T01:14:16.157Z,0.50
2022-09-10T01:14:26.214Z,0.20
2022-09-10T01:14:36.143Z,1.10
2022-09-10T01:14:46.149Z,1.00
2022-09-10T01:14:56.172Z,1.10
2022-09-10T01:15:06.159Z,0.50
2022-09-10T01:15:16.226Z,1.00
2022-09-10T01:15:26.161Z,1.10
2022-09-10T01:15:36.268Z,0.90
2022-09-10T01:15:46.216Z,2.00
2022-09-10T01:15:56.293Z,1.90
2022-09-10T01:16:06.256Z,2.30
2022-09-10T01:16:16.206Z,1.70
2022-09-10T01:16:26.279Z,2.40
2022-09-10T01:16:36.211Z,5.20
2022-09-10T01:16:46.204Z,4.00
2022-09-10T01:16:56.256Z,4.70
2022-09-10T01:17:06.227Z,1.40
2022-09-10T01:17:16.253Z,1.40
2022-09-10T01:17:26.183Z,0.70
2022-09-10T01:17:36.144Z,1.00
2022-09-10T01:17:46.244Z,1.40
2022-09-10T01:17:56.260Z,0.90
2022-09-10T01:18:06.229Z,0.70
2022-09-10T01:18:16.197Z,0.80
2022-09-10T01:18:26.232Z,1.20
2022-09-10T01:18:36.149Z,1.20
2022-09-10T01:18:46.136Z,1.60
2022-09-10T01:18:56.176Z,1.80
2022-09-10T01:19:06.142Z,2.10
2022-09-10T01:19:16.197Z,1.50
2022-09-10T01:19:26.207Z,0.90
2022-09-10T01:19:36.151Z,0.80
2022-09-10T01:19:46.256Z,1.00
2022-09-10T01:19:56.244Z,1.10
2022-09-10T01:20:06.168Z,1.30
2022-09-10T01:20:16.221Z,0.60
2022-09-10T01:20:26.203Z,1.50
2022-09-10T01:20:36.145Z,2.10
2022-09-10T01:20:46.221Z,2.90
2022-09-10T01:20:56.174Z,2.10
2022-09-10T01:21:06.144Z,1.10
2022-09-10T01:21:16.145Z,0.40
2022-09-10T01:21:26.216Z,1.00
2022-09-10T01:21:36.218Z,1.30
2022-09-10T01:21:46.239Z,1.80
2022-09-10T01:21:56.215Z,1.30
2022-09-10T01:22:06.196Z,0.90
2022-09-10T01:22:16.209Z,0.50
2022-09-10T01:22:26.148Z,0.60
2022-09-10T01:22:36.242Z,1.90
2022-09-10T01:22:46.185Z,1.70
2022-09-10T01:22:56.244Z,1.70
2022-09-10T01:23:06.198Z,0.30
2022-09-10T01:23:17.882Z,1.10
2022-09-10T01:23:26.218Z,1.40
2022-09-10T01:23:36.206Z,1.50
2022-09-10T01:23:46.256Z,1.20
2022-09-10T01:23:56.262Z,1.00
2022-09-10T01:24:06.226Z,1.50
2022-09-10T01:24:16.157Z,1.10
2022-09-10T01:24:26.179Z,1.20
2022-09-10T01:24:36.198Z,2.10
2022-09-10T01:24:46.199Z,2.40
2022-09-10T01:24:56.139Z,4.60
2022-09-10T01:25:06.257Z,3.20
2022-09-10T01:25:16.145Z,3.10
2022-09-10T01:25:26.270Z,0.60
2022-09-10T01:25:36.214Z,1.20
2022-09-10T01:25:46.220Z,1.10
2022-09-10T01:25:56.242Z,1.20
2022-09-10T01:26:06.215Z,0.70
2022-09-10T01:26:16.219Z,0.60
2022-09-10T01:26:26.208Z,0.60
2022-09-10T01:26:36.135Z,0.40
2022-09-10T01:26:46.245Z,0.60
2022-09-10T01:26:56.239Z,0.50
2022-09-10T01:27:06.148Z,2.00
2022-09-10T01:27:16.260Z,2.40
2022-09-10T01:27:26.186Z,2.30
2022-09-10T01:27:36.267Z,0.90
2022-09-10T01:27:46.172Z,0.60
2022-09-10T01:27:56.264Z,0.70
2022-09-10T01:28:06.199Z,0.60
2022-09-10T01:28:16.253Z,1.50
2022-09-10T01:28:26.182Z,2.30
2022-09-10T01:28:36.292Z,3.20
2022-09-10T01:28:46.242Z,2.20
2022-09-10T01:28:56.211Z,1.40
2022-09-10T01:29:06.220Z,1.70
2022-09-10T01:29:16.166Z,3.00
2022-09-10T01:29:26.197Z,3.00
2022-09-10T01:29:36.172Z,1.90
2022-09-10T01:29:46.180Z,0.50
2022-09-10T01:29:56.172Z,0.60
2022-09-10T01:30:06.161Z,0.80
2022-09-10T01:30:16.265Z,1.00
2022-09-10T01:30:26.185Z,2.00
2022-09-10T01:30:36.142Z,1.70
2022-09-10T01:30:46.156Z,2.10
2022-09-10T01:30:56.166Z,2.40
2022-09-10T01:31:06.273Z,2.70
2022-09-10T01:31:16.279Z,2.70
2022-09-10T01:31:26.220Z,1.60
2022-09-10T01:31:36.325Z,1.40
2022-09-10T01:31:46.301Z,1.50
2022-09-10T01:31:56.224Z,1.50
2022-09-10T01:32:06.219Z,1.40
2022-09-10T01:32:16.232Z,1.30
2022-09-10T01:32:26.147Z,1.10
2022-09-10T01:32:36.233Z,1.50
2022-09-10T01:32:46.229Z,1.10
2022-09-10T01:32:56.174Z,1.20
2022-09-10T01:33:06.147Z,1.00
2022-09-10T01:33:16.184Z,0.80
2022-09-10T01:33:26.256Z,1.60
2022-09-10T01:33:36.231Z,2.70
2022-09-10T01:33:46.228Z,3.60
2022-09-10T01:33:56.159Z,2.60
2022-09-10T01:34:06.255Z,1.70
2022-09-10T01:34:16.163Z,1.00
2022-09-10T01:34:26.259Z,2.10
2022-09-10T01:34:36.208Z,1.70
2022-09-10T01:34:46.238Z,1.60
2022-09-10T01:34:56.166Z,1.30
2022-09-10T01:35:06.141Z,2.00
2022-09-10T01:35:16.163Z,2.00
2022-09-10T01:35:26.210Z,0.90
2022-09-10T01:35:36.189Z,0.60
2022-09-10T01:35:46.144Z,0.60
2022-09-10T01:35:56.156Z,2.20
2022-09-10T01:36:06.185Z,1.90
2022-09-10T01:36:16.234Z,2.30
2022-09-10T01:36:26.204Z,0.80
2022-09-10T01:36:36.245Z,1.30
2022-09-10T01:36:46.140Z,1.30
2022-09-10T01:36:56.222Z,2.10
2022-09-10T01:37:06.161Z,1.60
2022-09-10T01:37:16.236Z,1.60
2022-09-10T01:37:26.232Z,0.80
2022-09-10T01:37:36.152Z,1.30
2022-09-10T01:37:46.253Z,1.10
2022-09-10T01:37:56.160Z,2.10
2022-09-10T01:38:06.167Z,1.60
2022-09-10T01:38:16.163Z,3.10
2022-09-10T01:38:26.204Z,2.10
2022-09-10T01:38:36.152Z,2.40
2022-09-10T01:38:46.222Z,0.60
2022-09-10T01:38:56.279Z,1.60
2022-09-10T01:39:06.233Z,2.50
2022-09-10T01:39:16.152Z,2.50
2022-09-10T01:39:26.198Z,2.00
2022-09-10T01:39:36.177Z,0.80
2022-09-10T01:39:46.285Z,0.90
2022-09-10T01:39:56.208Z,0.50
2022-09-10T01:40:06.244Z,1.50
2022-09-10T01:40:16.268Z,2.20
2022-09-10T01:40:26.177Z,2.00
2022-09-10T01:40:36.219Z,1.70
2022-09-10T01:40:46.176Z,1.40
2022-09-10T01:40:56.227Z,3.20
2022-09-10T01:41:06.168Z,2.70
2022-09-10T01:41:16.233Z,2.20
2022-09-10T01:41:26.218Z,0.40
2022-09-10T01:41:36.194Z,0.50
2022-09-10T01:41:46.201Z,0.50
2022-09-10T01:41:56.238Z,1.00
2022-09-10T01:42:06.181Z,1.00
2022-09-10T01:42:16.225Z,1.10
2022-09-10T01:42:26.252Z,0.70
2022-09-10T01:42:36.143Z,0.80
2022-09-10T01:42:46.244Z,0.70
2022-09-10T01:42:56.147Z,0.80
2022-09-10T01:43:06.252Z,1.30
2022-09-10T01:43:16.215Z,2.30
2022-09-10T01:43:26.232Z,2.60
2022-09-10T01:43:36.159Z,2.10
2022-09-10T01:43:46.270Z,1.20
2022-09-10T01:43:56.227Z,1.10
2022-09-10T01:44:06.222Z,1.20
2022-09-10T01:44:16.152Z,1.30
2022-09-10T01:44:26.200Z,0.90
2022-09-10T01:44:36.173Z,2.10
2022-09-10T01:44:46.268Z,3.30
2022-09-10T01:44:56.241Z,3.40
2022-09-10T01:45:06.229Z,2.00
2022-09-10T01:45:16.240Z,2.00
2022-09-10T01:45:26.261Z,2.20
2022-09-10T01:45:36.228Z,2.20
2022-09-10T01:45:46.237Z,0.80
2022-09-10T01:45:56.260Z,0.80
2022-09-10T01:46:06.173Z,0.60
2022-09-10T01:46:16.235Z,1.10
2022-09-10T01:46:26.209Z,0.80
2022-09-10T01:46:36.216Z,1.50
2022-09-10T01:46:46.141Z,1.10
2022-09-10T01:46:56.161Z,1.90
2022-09-10T01:47:06.228Z,1.90
2022-09-10T01:47:16.179Z,2.00
2022-09-10T01:47:26.190Z,1.20
2022-09-10T01:47:36.245Z,0.60
2022-09-10T01:47:46.194Z,1.80
2022-09-10T01:47:56.144Z,2.30
2022-09-10T01:48:06.155Z,2.20
2022-09-10T01:48:16.261Z,1.00
2022-09-10T01:48:26.177Z,1.30
2022-09-10T01:48:36.274Z,1.30
2022-09-10T01:48:46.254Z,1.50
2022-09-10T01:48:56.145Z,0.80
2022-09-10T01:49:06.221Z,1.90
2022-09-10T01:49:16.177Z,2.60
2022-09-10T01:49:26.224Z,3.40
2022-09-10T01:49:36.165Z,3.40
2022-09-10T01:49:46.220Z,2.30
2022-09-10T01:49:56.217Z,2.00
2022-09-10T01:50:06.245Z,1.00
2022-09-10T01:50:16.217Z,1.60
2022-09-10T01:50:26.188Z,1.50
2022-09-10T01:50:36.165Z,1.40
2022-09-10T01:50:46.143Z,1.80
2022-09-10T01:50:56.147Z,1.60
2022-09-10T01:51:06.199Z,2.20
2022-09-10T01:51:16.183Z,1.10
2022-09-10T01:51:26.241Z,1.30
2022-09-10T01:51:36.226Z,1.50
2022-09-10T01:51:46.216Z,1.80
2022-09-10T01:51:56.150Z,1.60
2022-09-10T01:52:06.142Z,0.70
2022-09-10T01:52:16.155Z,0.60
2022-09-10T01:52:26.246Z,0.50
2022-09-10T01:52:36.277Z,0.80
2022-09-10T01:52:46.239Z,0.80
2022-09-10T01:52:56.206Z,1.40
2022-09-10T01:53:06.143Z,1.80
2022-09-10T01:53:16.206Z,1.60
2022-09-10T01:53:26.232Z,0.90
2022-09-10T01:53:36.152Z,0.30
2022-09-10T01:53:46.246Z,2.10
2022-09-10T01:53:56.234Z,3.60
2022-09-10T01:54:06.196Z,4.30
2022-09-10T01:54:16.240Z,3.80
2022-09-10T01:54:26.142Z,2.30
2022-09-10T01:54:36.210Z,1.60
2022-09-10T01:54:46.243Z,1.00
2022-09-10T01:54:56.218Z,2.50
2022-09-10T01:55:06.224Z,2.70
2022-09-10T01:55:16.238Z,2.10
2022-09-10T01:55:26.197Z,0.50
2022-09-10T01:55:36.198Z,0.80
2022-09-10T01:55:46.177Z,1.90
2022-09-10T01:55:56.142Z,1.90
2022-09-10T01:56:06.259Z,1.40
2022-09-10T01:56:16.206Z,0.40
2022-09-10T01:56:26.190Z,0.50
2022-09-10T01:56:36.175Z,0.70
2022-09-10T01:56:46.266Z,1.20
2022-09-10T01:56:56.161Z,1.20
2022-09-10T01:57:06.272Z,1.30
2022-09-10T01:57:16.161Z,1.00
2022-09-10T01:57:26.158Z,0.90
2022-09-10T01:57:36.182Z,1.30
2022-09-10T01:57:46.187Z,1.10
2022-09-10T01:57:56.142Z,1.30
2022-09-10T01:58:06.162Z,0.70
2022-09-10T01:58:16.167Z,1.50
2022-09-10T01:58:26.217Z,1.30
2022-09-10T01:58:36.197Z,0.90
2022-09-10T01:58:46.219Z,2.00
2022-09-10T01:58:56.255Z,2.00
2022-09-10T01:59:06.162Z,2.20
2022-09-10T01:59:16.185Z,1.20
2022-09-10T01:59:26.234Z,1.20
2022-09-10T01:59:36.264Z,1.50
2022-09-10T01:59:46.209Z,1.40
2022-09-10T01:59:56.198Z,1.70
2022-09-10T02:00:06.227Z,1.30
2022-09-10T02:00:16.241Z,1.50
2022-09-10T02:00:26.193Z,1.30
2022-09-10T02:00:36.203Z,1.30
2022-09-10T02:00:46.215Z,0.50
2022-09-10T02:00:56.185Z,0.60
2022-09-10T02:01:06.258Z,0.40
2022-09-10T02:01:16.238Z,0.70
2022-09-10T02:01:26.158Z,0.90
2022-09-10T02:01:36.242Z,1.70
2022-09-10T02:01:46.218Z,2.30
2022-09-10T02:01:56.261Z,1.90
2022-09-10T02:02:06.208Z,1.90
2022-09-10T02:02:16.299Z,1.10
2022-09-10T02:02:26.299Z,2.50
2022-09-10T02:02:36.179Z,1.80
2022-09-10T02:02:46.237Z,2.40
2022-09-10T02:02:56.221Z,1.40
2022-09-10T02:03:06.222Z,1.50
2022-09-10T02:03:16.230Z,0.70
2022-09-10T02:03:26.157Z,1.10
2022-09-10T02:03:36.226Z,2.00
2022-09-10T02:03:46.191Z,2.20
2022-09-10T02:03:56.136Z,1.30
2022-09-10T02:04:06.230Z,5.50
2022-09-10T02:04:16.181Z,5.80
2022-09-10T02:04:26.264Z,7.20
2022-09-10T02:04:36.245Z,2.30
2022-09-10T02:04:46.165Z,1.90
2022-09-10T02:04:56.264Z,1.30
2022-09-10T02:05:06.228Z,3.20
2022-09-10T02:05:16.228Z,3.10
2022-09-10T02:05:26.189Z,2.70
2022-09-10T02:05:36.207Z,1.20
2022-09-10T02:05:46.168Z,1.40
2022-09-10T02:05:56.271Z,1.30
2022-09-10T02:06:06.169Z,0.70
2022-09-10T02:06:16.220Z,0.60
2022-09-10T02:06:26.237Z,0.50
2022-09-10T02:06:36.160Z,0.50
2022-09-10T02:06:46.190Z,0.50
2022-09-10T02:06:56.221Z,0.60
2022-09-10T02:07:06.143Z,1.00
2022-09-10T02:07:16.255Z,0.90
2022-09-10T02:07:26.268Z,1.20
2022-09-10T02:07:36.256Z,0.90
2022-09-10T02:07:46.189Z,1.10
2022-09-10T02:07:56.207Z,1.20
2022-09-10T02:08:06.163Z,2.60
2022-09-10T02:08:16.137Z,2.70
2022-09-10T02:08:26.183Z,2.40
2022-09-10T02:08:36.226Z,0.70
2022-09-10T02:08:46.256Z,0.60
2022-09-10T02:08:56.162Z,2.10
2022-09-10T02:09:06.215Z,2.50
2022-09-10T02:09:16.207Z,3.30
2022-09-10T02:09:26.244Z,1.80
2022-09-10T02:09:36.193Z,1.50
2022-09-10T02:09:46.150Z,1.50
2022-09-10T02:09:56.218Z,1.80
2022-09-10T02:10:06.160Z,2.70
2022-09-10T02:10:16.259Z,1.70
2022-09-10T02:10:26.208Z,1.50
2022-09-10T02:10:36.236Z,0.90
2022-09-10T02:10:46.183Z,1.30
2022-09-10T02:10:56.223Z,1.70
2022-09-10T02:11:06.147Z,1.60
2022-09-10T02:11:16.178Z,2.10
2022-09-10T02:11:26.171Z,1.40
2022-09-10T02:11:36.223Z,2.20
2022-09-10T02:11:46.163Z,1.30
2022-09-10T02:11:56.212Z,2.10
2022-09-10T02:12:06.255Z,1.30
2022-09-10T02:12:16.147Z,1.50
2022-09-10T02:12:26.262Z,1.10
2022-09-10T02:12:36.240Z,1.00
2022-09-10T02:12:46.208Z,0.80
2022-09-10T02:12:56.278Z,1.10
2022-09-10T02:13:06.193Z,1.60